Weston, Ohio
Current Conditions -  °F | °C
As of 8:52 PM on Sunday 25 Jan 2015 (Local Time) from KTOL Reporting Station
Light Snow Light Snow  
Wind Chill:   Ceiling: 4200
Heat Index: 19°   Visibility: 7mi
Dew Point: 11°   Wind: 13mph
Humidity: 71%   Direction: 50°NE
Pressure: 29.92"   Gusts: 24mph
Location:  41.34°N, 83.8°W
Report Text: KTOL 260152Z 05011G21KT 7SM -SN OVC042 M07/M12 A2992 RMK AO2 SLP144 P0000 T10721117
Loading
Personal Weather Stations






























Interactive Weather Map New forecast layout! Learn more

10-Day Weather Forecast

Advertisements
Track Severe Weather on mobile